Time;durP1;ratioP1;P1;durP2;ratioP2;P2;SDS_P1;SDS_P2;PMS_P1;PMS_P2;Temp;Humidity;BMP_temperature;BMP_pressure;BME280_temperature;BME280_humidity;BME280_pressure;Samples;Min_cycle;Max_cycle;Signal;HPM_P1;HPM_P2
2022/12/26 06:03:42;;;;;;;3.03;1.52;;;12.20;99.90;;;;;;4870471;29;20061;-74
2022/12/26 06:06:08;;;;;;;2.58;1.70;;;12.20;99.90;;;;;;4871462;29;20142;-74
2022/12/26 06:08:35;;;;;;;3.30;1.58;;;12.10;99.90;;;;;;4871175;29;20047;-74
2022/12/26 06:11:10;;;;;;;3.38;1.80;;;12.10;99.90;;;;;;4870973;29;20038;-74
2022/12/26 06:13:36;;;;;;;3.03;1.55;;;12.00;99.90;;;;;;4872421;29;20251;-74
2022/12/26 06:16:11;;;;;;;2.75;1.60;;;12.00;99.90;;;;;;4871920;29;20040;-74
2022/12/26 06:18:37;;;;;;;3.30;1.77;;;11.90;99.90;;;;;;4872193;29;20077;-73
2022/12/26 06:21:11;;;;;;;3.83;1.80;;;11.80;99.90;;;;;;4871825;29;20029;-74
2022/12/26 06:23:38;;;;;;;6.45;2.60;;;11.70;99.90;;;;;;4870972;29;20036;-73
2022/12/26 06:26:04;;;;;;;3.63;2.00;;;11.60;99.90;;;;;;4871632;29;20033;-74
2022/12/26 06:28:32;;;;;;;4.97;2.20;;;11.40;99.90;;;;;;4871141;29;20151;-73
2022/12/26 06:31:03;;;;;;;3.80;2.10;;;11.30;99.90;;;;;;4871886;29;20048;-74
2022/12/26 06:33:29;;;;;;;4.45;1.98;;;11.20;99.90;;;;;;4871026;29;20033;-74
2022/12/26 06:36:11;;;;;;;2.75;1.65;;;11.20;99.90;;;;;;4871452;29;20188;-73
2022/12/26 06:38:37;;;;;;;3.75;2.03;;;11.10;99.90;;;;;;4871507;29;20240;-73
2022/12/26 06:41:08;;;;;;;4.68;2.30;;;11.10;99.90;;;;;;4871681;29;20045;-74
2022/12/26 06:43:34;;;;;;;3.45;1.98;;;11.10;99.90;;;;;;4871602;29;20056;-74
2022/12/26 06:46:01;;;;;;;4.15;2.25;;;11.10;99.90;;;;;;4871575;29;20046;-74
2022/12/26 06:48:27;;;;;;;4.50;2.42;;;11.10;99.90;;;;;;4869879;29;20092;-73
2022/12/26 06:50:54;;;;;;;3.60;2.30;;;11.10;99.90;;;;;;4871226;29;20231;-73
2022/12/26 06:53:21;;;;;;;4.03;2.15;;;11.00;99.90;;;;;;4870770;29;20029;-73
2022/12/26 06:55:47;;;;;;;3.97;2.22;;;11.00;99.90;;;;;;4871584;29;20029;-73
2022/12/26 06:58:14;;;;;;;5.00;1.88;;;11.10;99.90;;;;;;4870295;29;20030;-73
2022/12/26 07:00:39;;;;;;;4.43;2.22;;;11.10;99.90;;;;;;4871167;29;20041;-73
2022/12/26 07:03:05;;;;;;;4.05;2.40;;;11.10;99.90;;;;;;4870955;29;20227;-74
2022/12/26 07:05:31;;;;;;;3.15;1.80;;;11.10;99.90;;;;;;4870780;29;20038;-74
2022/12/26 07:07:56;;;;;;;2.67;1.70;;;11.10;99.90;;;;;;4871423;29;20037;-74
2022/12/26 07:10:22;;;;;;;5.10;2.25;;;11.20;99.90;;;;;;4869617;29;20112;-74
2022/12/26 07:12:48;;;;;;;4.05;1.90;;;11.10;99.90;;;;;;4870919;29;20037;-74
2022/12/26 07:15:14;;;;;;;4.28;2.10;;;11.20;99.90;;;;;;4869561;29;20315;-73
2022/12/26 07:17:40;;;;;;;4.65;2.10;;;11.20;99.90;;;;;;4870930;29;20069;-74
2022/12/26 07:20:07;;;;;;;4.43;2.40;;;11.20;99.90;;;;;;4871057;29;20037;-74
2022/12/26 07:22:33;;;;;;;3.85;1.88;;;11.20;99.90;;;;;;4870438;29;20097;-74
2022/12/26 07:24:58;;;;;;;4.93;2.38;;;11.20;99.90;;;;;;4870643;29;20037;-73
2022/12/26 07:27:24;;;;;;;3.15;1.77;;;11.20;99.90;;;;;;4870356;29;20096;-73
2022/12/26 07:29:50;;;;;;;3.92;2.10;;;11.40;99.90;;;;;;4870746;29;20034;-74
2022/12/26 07:32:16;;;;;;;3.90;2.38;;;11.50;99.90;;;;;;4869909;29;20048;-74
2022/12/26 07:34:42;;;;;;;3.15;1.90;;;11.50;99.90;;;;;;4870866;29;20104;-73
2022/12/26 07:37:08;;;;;;;4.13;1.95;;;11.50;99.90;;;;;;4870292;29;20305;-74
2022/12/26 07:39:34;;;;;;;4.10;2.10;;;11.60;99.90;;;;;;4869983;29;20033;-73
2022/12/26 07:42:00;;;;;;;6.25;2.00;;;11.60;99.90;;;;;;4870891;29;20029;-73
2022/12/26 07:44:31;;;;;;;3.42;1.92;;;11.60;99.90;;;;;;4869971;29;20043;-73
2022/12/26 07:46:58;;;;;;;5.18;2.10;;;11.50;99.90;;;;;;4870435;29;20223;-73
2022/12/26 07:49:24;;;;;;;3.78;1.90;;;11.60;99.90;;;;;;4870001;29;20039;-73
2022/12/26 07:51:50;;;;;;;4.10;2.25;;;11.60;99.90;;;;;;4870121;29;20100;-73
2022/12/26 07:54:17;;;;;;;4.13;2.20;;;11.60;99.90;;;;;;4869709;29;20313;-72
2022/12/26 07:56:44;;;;;;;5.22;2.10;;;11.60;99.90;;;;;;4870374;29;20316;-73
2022/12/26 07:59:15;;;;;;;4.28;2.35;;;11.50;99.90;;;;;;4870353;29;20299;-75
2022/12/26 08:01:44;;;;;;;3.28;1.98;;;11.50;99.90;;;;;;4870120;29;20106;-74
2022/12/26 08:04:10;;;;;;;3.58;2.00;;;11.40;99.90;;;;;;4870100;29;20040;-75
2022/12/26 08:06:36;;;;;;;4.32;2.08;;;11.40;99.90;;;;;;4869639;29;20052;-74
2022/12/26 08:09:02;;;;;;;3.75;2.10;;;11.50;99.90;;;;;;4869562;29;20096;-75
2022/12/26 08:11:33;;;;;;;4.47;2.22;;;11.50;99.90;;;;;;4868882;29;20226;-74
2022/12/26 08:14:00;;;;;;;3.85;2.30;;;11.50;99.90;;;;;;4870077;29;20049;-75
2022/12/26 08:16:26;;;;;;;3.58;1.80;;;11.50;99.90;;;;;;4869089;29;20042;-75
2022/12/26 08:18:52;;;;;;;3.63;2.10;;;11.40;99.90;;;;;;4869649;29;20044;-73
2022/12/26 08:21:18;;;;;;;9.77;6.82;;;11.50;99.90;;;;;;4869043;29;20037;-73
2022/12/26 08:23:45;;;;;;;6.32;3.83;;;11.50;99.90;;;;;;4869882;29;20025;-74
2022/12/26 08:26:11;;;;;;;5.95;2.97;;;11.40;99.90;;;;;;4869896;29;20060;-73
2022/12/26 08:28:40;;;;;;;4.30;2.30;;;11.50;99.90;;;;;;4869880;29;20081;-73
2022/12/26 08:31:08;;;;;;;3.38;1.95;;;11.40;99.90;;;;;;4869628;29;20215;-74
2022/12/26 08:33:34;;;;;;;4.13;2.05;;;11.50;99.90;;;;;;4869031;29;20181;-74
2022/12/26 08:36:06;;;;;;;4.53;2.03;;;11.50;99.90;;;;;;4869755;29;20096;-74
2022/12/26 08:38:32;;;;;;;4.15;2.10;;;11.60;99.90;;;;;;4861884;29;20052;-75
2022/12/26 08:40:58;;;;;;;4.72;2.40;;;11.50;99.90;;;;;;4884100;29;20033;-73
2022/12/26 08:43:24;;;;;;;4.10;2.58;;;11.60;99.90;;;;;;4869105;29;20211;-75
2022/12/26 08:46:16;;;;;;;3.35;2.20;;;11.60;99.90;;;;;;4869294;29;20041;-75
2022/12/26 08:48:42;;;;;;;6.00;3.38;;;11.60;99.90;;;;;;4865790;29;20050;-74
2022/12/26 08:51:13;;;;;;;4.95;2.92;;;11.50;99.90;;;;;;4869461;29;20085;-74
2022/12/26 08:53:39;;;;;;;3.75;2.38;;;11.50;99.90;;;;;;4868659;29;20033;-74
2022/12/26 08:56:07;;;;;;;5.00;2.40;;;11.50;99.90;;;;;;4869212;29;20112;-74
2022/12/26 08:58:34;;;;;;;3.83;2.33;;;11.40;99.90;;;;;;4867810;29;20052;-74
2022/12/26 09:01:09;;;;;;;4.35;2.35;;;11.40;99.90;;;;;;4869492;29;20040;-74
2022/12/26 09:03:36;;;;;;;5.60;2.88;;;11.40;99.90;;;;;;4868218;29;20049;-73
2022/12/26 09:06:02;;;;;;;5.72;2.63;;;11.30;99.90;;;;;;4868983;29;20044;-74
2022/12/26 09:08:29;;;;;;;6.05;2.83;;;11.40;99.90;;;;;;4868651;29;20221;-73
2022/12/26 09:10:59;;;;;;;4.75;2.85;;;11.40;99.90;;;;;;4869058;29;20145;-74
2022/12/26 09:13:24;;;;;;;5.32;2.58;;;11.40;99.90;;;;;;4868644;29;20048;-75
2022/12/26 09:15:50;;;;;;;6.15;3.13;;;11.40;99.90;;;;;;4869092;29;20096;-75
2022/12/26 09:18:16;;;;;;;4.20;3.08;;;11.40;99.90;;;;;;4868074;29;20378;-75
2022/12/26 09:20:41;;;;;;;5.57;2.60;;;11.40;99.90;;;;;;4869361;29;20033;-74
2022/12/26 09:23:09;;;;;;;4.70;2.80;;;11.40;99.90;;;;;;4871969;29;20044;-75
2022/12/26 09:25:35;;;;;;;4.47;2.97;;;11.30;99.90;;;;;;4870969;29;20037;-74
2022/12/26 09:28:01;;;;;;;6.47;3.28;;;11.40;99.90;;;;;;4872995;29;20048;-75
2022/12/26 09:30:27;;;;;;;13.80;8.95;;;11.40;99.90;;;;;;4871147;29;20033;-75
2022/12/26 09:32:52;;;;;;;8.02;5.70;;;11.40;99.90;;;;;;4872614;29;20097;-74
2022/12/26 09:35:18;;;;;;;12.73;7.43;;;11.40;99.90;;;;;;4871332;29;20040;-75
2022/12/26 09:37:44;;;;;;;11.90;8.70;;;11.50;99.90;;;;;;4872755;29;20111;-74
2022/12/26 09:40:21;;;;;;;6.60;4.18;;;11.50;99.90;;;;;;4872801;29;20101;-74
2022/12/26 09:43:04;;;;;;;6.10;3.63;;;11.40;99.90;;;;;;4872519;29;20033;-74
2022/12/26 09:45:49;;;;;;;7.00;2.92;;;11.30;99.90;;;;;;4872129;29;20029;-74
2022/12/26 09:48:26;;;;;;;5.40;3.08;;;11.20;99.90;;;;;;4872475;29;20154;-74
2022/12/26 09:50:52;;;;;;;5.82;3.40;;;11.20;99.90;;;;;;4872554;29;20048;-74
2022/12/26 09:53:31;;;;;;;5.05;3.50;;;11.20;99.90;;;;;;4872606;29;20033;-74
2022/12/26 09:56:06;;;;;;;6.43;3.60;;;11.10;99.90;;;;;;4872288;29;20037;-74
2022/12/26 09:58:40;;;;;;;8.25;4.25;;;11.00;99.90;;;;;;4872078;29;20037;-73
2022/12/26 10:01:12;;;;;;;8.90;3.92;;;10.90;99.90;;;;;;4872512;29;20041;-73
2022/12/26 10:03:46;;;;;;;6.32;4.30;;;10.90;99.90;;;;;;4871550;29;20108;-74
2022/12/26 10:06:23;;;;;;;8.10;4.57;;;10.80;99.90;;;;;;4872060;29;20041;-73
2022/12/26 10:09:04;;;;;;;31.98;20.80;;;10.70;99.90;;;;;;4872390;29;20048;-74
2022/12/26 10:12:05;;;;;;;10.20;5.63;;;10.60;99.90;;;;;;4871752;29;20041;-73
2022/12/26 10:14:42;;;;;;;11.73;7.25;;;10.60;99.90;;;;;;4871469;29;20033;-73
2022/12/26 10:17:36;;;;;;;8.13;5.50;;;10.60;99.90;;;;;;4872361;29;20048;-73
2022/12/26 10:20:20;;;;;;;9.05;4.72;;;10.60;99.90;;;;;;4872166;29;20510;-73
2022/12/26 10:22:52;;;;;;;8.25;4.63;;;10.60;99.90;;;;;;4871916;29;20034;-73
2022/12/26 10:25:43;;;;;;;8.88;5.00;;;10.60;99.90;;;;;;4872001;29;20083;-73
2022/12/26 10:28:39;;;;;;;9.18;5.22;;;10.60;99.90;;;;;;4871307;29;20101;-73
2022/12/26 10:31:46;;;;;;;8.35;4.18;;;10.50;99.90;;;;;;4866708;29;20042;-73
2022/12/26 10:34:20;;;;;;;6.47;3.83;;;10.50;99.90;;;;;;4832173;29;20039;-73
2022/12/26 10:37:26;;;;;;;6.18;3.80;;;10.60;99.90;;;;;;4867106;29;20090;-73
2022/12/26 10:40:00;;;;;;;7.32;4.10;;;10.70;99.90;;;;;;4871355;29;20106;-73
2022/12/26 10:42:29;;;;;;;7.15;3.55;;;10.70;99.90;;;;;;4870916;29;20290;-73
2022/12/26 10:44:56;;;;;;;;;;;10.80;99.90;;;;;;4870959;29;20040;-73
2022/12/26 10:47:39;;;;;;;6.57;3.33;;;10.80;99.90;;;;;;4870602;29;19962;-73
2022/12/26 10:50:12;;;;;;;8.43;4.38;;;10.90;99.90;;;;;;4885773;29;20040;-72
2022/12/26 10:52:39;;;;;;;4.90;3.25;;;11.00;99.90;;;;;;4871113;29;20342;-72
2022/12/26 10:55:05;;;;;;;6.93;3.92;;;11.10;99.90;;;;;;4871569;29;20331;-72
2022/12/26 10:57:35;;;;;;;5.60;3.35;;;11.10;99.90;;;;;;4871032;29;20112;-73
2022/12/26 11:00:27;;;;;;;4.25;1.98;;;11.30;99.90;;;;;;4871284;29;20282;-73
2022/12/26 11:03:06;;;;;;;3.08;1.60;;;11.40;99.90;;;;;;4870562;29;20056;-72
2022/12/26 11:05:43;;;;;;;8.20;5.60;;;11.40;99.90;;;;;;4870571;29;20037;-74
2022/12/26 11:08:11;;;;;;;4.32;1.70;;;11.40;99.90;;;;;;4871250;29;20068;-73
2022/12/26 11:10:37;;;;;;;;;;;11.40;99.90;;;;;;4871035;29;20049;-73
2022/12/26 11:13:07;;;;;;;4.28;2.05;;;11.40;99.90;;;;;;4870933;29;19930;-74
2022/12/26 11:15:36;;;;;;;5.30;2.95;;;11.40;99.90;;;;;;4870622;29;20033;-73
2022/12/26 11:18:14;;;;;;;7.78;4.55;;;11.40;99.90;;;;;;4869757;29;20052;-73
2022/12/26 11:20:40;;;;;;;8.55;5.38;;;11.40;99.90;;;;;;4870452;29;20402;-73
2022/12/26 11:23:33;;;;;;;5.20;2.90;;;11.50;99.90;;;;;;4870946;29;20111;-73
2022/12/26 11:26:00;;;;;;;5.25;2.70;;;11.60;99.90;;;;;;4868779;29;20117;-73
2022/12/26 11:28:31;;;;;;;8.68;5.93;;;11.70;99.90;;;;;;4870128;29;20021;-73
2022/12/26 11:30:57;;;;;;;4.45;2.40;;;11.80;99.90;;;;;;4870808;29;20032;-73
2022/12/26 11:33:41;;;;;;;5.35;3.55;;;11.80;99.90;;;;;;4870551;29;20157;-73
2022/12/26 11:36:19;;;;;;;5.03;2.67;;;11.90;99.90;;;;;;4870950;29;20033;-74
2022/12/26 11:38:55;;;;;;;3.28;1.58;;;11.90;99.90;;;;;;4871921;29;20218;-73
2022/12/26 11:41:33;;;;;;;3.50;1.23;;;11.80;99.90;;;;;;4870569;29;20033;-73
2022/12/26 11:44:20;;;;;;;7.35;3.08;;;11.80;99.90;;;;;;4870218;29;20065;-73
2022/12/26 11:47:07;;;;;;;4.40;2.08;;;11.80;99.90;;;;;;4869907;29;20480;-73
2022/12/26 11:49:46;;;;;;;3.50;1.38;;;11.70;99.90;;;;;;4869812;29;20041;-73
2022/12/26 11:52:43;;;;;;;4.85;1.70;;;11.70;99.90;;;;;;4870337;29;20040;-73
2022/12/26 11:55:23;;;;;;;2.03;0.93;;;11.70;99.90;;;;;;4870494;29;20029;-74
2022/12/26 11:58:00;;;;;;;2.00;1.10;;;11.70;99.90;;;;;;4869662;29;20040;-73
2022/12/26 12:00:28;;;;;;;4.35;2.35;;;11.60;99.90;;;;;;4870492;29;20139;-74
2022/12/26 12:02:53;;;;;;;5.70;2.55;;;11.60;99.90;;;;;;4869783;29;20125;-74
2022/12/26 12:05:28;;;;;;;2.95;1.25;;;11.60;99.90;;;;;;4870093;29;20049;-74
2022/12/26 12:08:17;;;;;;;3.08;1.00;;;11.70;99.90;;;;;;4870411;29;20045;-74
2022/12/26 12:10:46;;;;;;;2.30;1.20;;;11.80;99.90;;;;;;4868663;29;20068;-73
2022/12/26 12:13:30;;;;;;;3.67;1.52;;;11.90;99.90;;;;;;4869856;29;20232;-73
2022/12/26 12:16:03;;;;;;;1.38;0.68;;;12.10;99.90;;;;;;4868820;29;20042;-73
2022/12/26 12:18:41;;;;;;;4.32;2.83;;;12.20;99.90;;;;;;4869592;29;20040;-74
2022/12/26 12:21:20;;;;;;;2.25;1.38;;;12.30;99.90;;;;;;4870039;29;20101;-73
2022/12/26 12:23:57;;;;;;;3.58;1.67;;;12.40;99.90;;;;;;4869462;29;20033;-73
2022/12/26 12:26:59;;;;;;;5.40;2.40;;;12.60;99.90;;;;;;4869855;29;20317;-75
2022/12/26 12:29:28;;;;;;;4.45;2.53;;;12.60;99.90;;;;;;4869663;29;20442;-75
2022/12/26 12:32:07;;;;;;;2.63;0.90;;;12.60;99.90;;;;;;4869864;29;20102;-74
2022/12/26 12:35:07;;;;;;;1.90;0.73;;;12.50;99.90;;;;;;4868907;29;20037;-74
2022/12/26 12:37:40;;;;;;;1.90;1.05;;;12.40;99.90;;;;;;4869175;29;20052;-74
2022/12/26 12:40:34;;;;;;;2.38;1.40;;;12.30;99.90;;;;;;4869881;29;20036;-74
2022/12/26 12:43:30;;;;;;;2.53;1.23;;;12.20;99.90;;;;;;4869816;29;20157;-74
2022/12/26 12:46:18;;;;;;;1.98;0.95;;;12.30;99.90;;;;;;4869712;29;20038;-74
2022/12/26 12:48:43;;;;;;;3.75;2.72;;;12.10;99.90;;;;;;4869193;29;20045;-75
2022/12/26 12:51:21;;;;;;;2.70;2.13;;;12.20;99.90;;;;;;4869450;29;20064;-74
2022/12/26 12:54:13;;;;;;;2.13;0.98;;;12.20;99.90;;;;;;4868823;29;20033;-75
2022/12/26 12:56:53;;;;;;;2.38;1.00;;;12.10;99.90;;;;;;4868336;29;20113;-73
2022/12/26 12:59:38;;;;;;;2.00;0.73;;;12.10;99.90;;;;;;4869884;29;20038;-74
2022/12/26 13:02:14;;;;;;;1.80;0.80;;;12.20;99.90;;;;;;4869157;29;20274;-74
2022/12/26 13:04:46;;;;;;;2.15;0.63;;;12.20;99.90;;;;;;4868866;29;20082;-73
2022/12/26 13:07:22;;;;;;;1.88;0.80;;;12.10;99.90;;;;;;4869618;29;20121;-73
2022/12/26 13:09:50;;;;;;;2.35;0.98;;;12.20;99.90;;;;;;4868858;29;20025;-74
2022/12/26 13:12:38;;;;;;;1.73;0.70;;;12.20;99.90;;;;;;4870662;29;20041;-74
2022/12/26 13:15:13;;;;;;;1.05;0.57;;;12.20;99.90;;;;;;4871725;29;20128;-72
2022/12/26 13:18:00;;;;;;;1.48;0.73;;;12.20;99.90;;;;;;4874430;29;20043;-72
2022/12/26 13:20:58;;;;;;;2.17;0.85;;;12.20;99.90;;;;;;4867573;29;20037;-74
2022/12/26 13:26:44;;;;;;;1.40;0.50;;;12.20;99.90;;;;;;4871581;29;20049;-75
2022/12/26 13:29:28;;;;;;;1.20;0.40;;;12.20;99.90;;;;;;4864785;29;20122;-75
2022/12/26 13:31:56;;;;;;;3.20;0.52;;;12.10;99.90;;;;;;4868743;29;20041;-74
2022/12/26 13:34:22;;;;;;;3.33;0.50;;;12.20;99.90;;;;;;4869193;29;20211;-74
2022/12/26 13:36:54;;;;;;;1.35;0.43;;;12.20;99.90;;;;;;4868371;29;20041;-73
2022/12/26 13:39:31;;;;;;;0.90;0.30;;;12.20;99.90;;;;;;4868023;29;20045;-73
2022/12/26 13:44:53;;;;;;;1.90;0.43;;;12.20;99.90;;;;;;4868515;29;20450;-74
2022/12/26 13:47:34;;;;;;;1.30;0.40;;;12.20;99.90;;;;;;4869219;29;20200;-75
2022/12/26 13:50:37;;;;;;;1.15;0.40;;;12.30;99.90;;;;;;4869028;29;20077;-74
2022/12/26 13:53:04;;;;;;;1.40;0.50;;;12.20;99.90;;;;;;4867738;29;20144;-74
2022/12/26 13:55:41;;;;;;;1.60;0.50;;;12.30;99.90;;;;;;4868979;29;20215;-74
2022/12/26 13:58:29;;;;;;;1.58;0.40;;;12.20;99.90;;;;;;4868877;29;20073;-73
2022/12/26 14:01:23;;;;;;;1.52;0.70;;;12.20;99.90;;;;;;4868433;29;20099;-74
2022/12/26 14:04:19;;;;;;;1.83;0.60;;;12.00;99.90;;;;;;4868015;29;20091;-74
2022/12/26 14:06:50;;;;;;;1.58;0.60;;;12.00;99.90;;;;;;4867095;29;20272;-74
2022/12/26 14:09:41;;;;;;;1.95;0.60;;;11.90;99.90;;;;;;4871522;29;20041;-74
2022/12/26 14:12:37;;;;;;;2.05;0.88;;;11.90;99.90;;;;;;4872053;29;20041;-74
2022/12/26 14:15:14;;;;;;;2.00;0.60;;;11.80;99.90;;;;;;4855937;29;20345;-74
2022/12/26 14:18:13;;;;;;;1.50;0.75;;;11.90;99.90;;;;;;4871740;29;20040;-73
2022/12/26 14:20:41;;;;;;;2.40;0.80;;;11.80;99.90;;;;;;4871538;29;20108;-74
2022/12/26 14:23:28;;;;;;;1.43;0.60;;;11.80;99.90;;;;;;4872055;29;20097;-74
2022/12/26 14:26:17;;;;;;;2.40;0.90;;;11.70;99.90;;;;;;4871249;29;20045;-73
2022/12/26 14:29:02;;;;;;;2.03;0.90;;;11.70;99.90;;;;;;4865942;29;20072;-74
2022/12/26 14:32:09;;;;;;;1.80;0.90;;;11.70;99.90;;;;;;4871815;29;20081;-75
2022/12/26 14:34:35;;;;;;;7.55;5.18;;;11.70;99.90;;;;;;4869731;29;20045;-74
2022/12/26 14:37:29;;;;;;;2.95;1.45;;;11.70;99.90;;;;;;4870417;29;20037;-74
2022/12/26 14:40:20;;;;;;;3.40;1.50;;;11.60;99.90;;;;;;4870877;29;20041;-74
2022/12/26 14:43:10;;;;;;;2.75;1.30;;;11.60;99.90;;;;;;4871132;29;20037;-74
2022/12/26 14:45:36;;;;;;;24.30;11.25;;;11.60;99.90;;;;;;4871624;29;20038;-74
2022/12/26 14:48:16;;;;;;;5.93;2.92;;;11.60;99.90;;;;;;4871267;29;20086;-74
2022/12/26 14:50:47;;;;;;;15.10;7.47;;;11.60;99.90;;;;;;4870930;29;20425;-74
2022/12/26 14:53:26;;;;;;;54.75;20.30;;;11.60;99.90;;;;;;4871520;29;20033;-74
2022/12/26 14:56:06;;;;;;;17.45;6.95;;;11.60;99.90;;;;;;4870749;29;20045;-73
2022/12/26 14:58:37;;;;;;;14.00;5.07;;;11.60;99.90;;;;;;4871694;29;20105;-74
2022/12/26 15:01:09;;;;;;;5.05;1.20;;;11.60;99.90;;;;;;4871368;29;20041;-73
2022/12/26 15:03:46;;;;;;;4.32;1.42;;;11.50;99.90;;;;;;4870904;29;20058;-74
2022/12/26 15:06:18;;;;;;;9.43;5.22;;;11.50;99.90;;;;;;4871115;29;20033;-73
2022/12/26 15:08:53;;;;;;;3.72;1.98;;;11.40;99.90;;;;;;4870481;29;20112;-74
2022/12/26 15:11:37;;;;;;;4.35;2.17;;;11.40;99.90;;;;;;4871305;29;20200;-74
2022/12/26 15:14:41;;;;;;;5.18;2.08;;;11.30;99.90;;;;;;4869382;29;20030;-74
2022/12/26 15:17:25;;;;;;;3.33;1.42;;;11.20;99.90;;;;;;4871297;29;20036;-74
2022/12/26 15:20:33;;;;;;;2.30;1.10;;;11.10;99.90;;;;;;4870328;29;20030;-73
2022/12/26 15:23:17;;;;;;;7.60;4.68;;;11.00;99.90;;;;;;4870508;29;20214;-73
2022/12/26 15:25:52;;;;;;;18.90;12.98;;;11.00;99.90;;;;;;4870559;29;20104;-74
2022/12/26 15:28:26;;;;;;;7.25;3.55;;;11.00;99.90;;;;;;4885210;29;20095;-73
2022/12/26 15:31:17;;;;;;;6.38;3.90;;;10.90;99.90;;;;;;4869070;29;20092;-73
2022/12/26 15:33:45;;;;;;;3.60;1.73;;;10.90;99.90;;;;;;4870335;29;20100;-74
2022/12/26 15:36:29;;;;;;;2.80;1.50;;;10.80;99.90;;;;;;4870888;29;20041;-73
2022/12/26 15:39:09;;;;;;;2.17;0.80;;;10.90;99.90;;;;;;4870000;29;20192;-73
2022/12/26 15:41:46;;;;;;;3.03;0.90;;;10.80;99.90;;;;;;4870412;29;20339;-74
2022/12/26 15:44:28;;;;;;;2.55;0.95;;;10.90;99.90;;;;;;4870447;29;20033;-74
2022/12/26 15:47:11;;;;;;;1.88;0.75;;;11.00;99.90;;;;;;4869903;29;20122;-74
2022/12/26 15:49:57;;;;;;;2.40;0.90;;;11.00;99.90;;;;;;4870666;29;20045;-74
2022/12/26 15:52:52;;;;;;;2.58;0.93;;;11.00;99.90;;;;;;4870671;29;20313;-74
2022/12/26 15:55:30;;;;;;;1.98;1.00;;;10.90;99.90;;;;;;4853295;29;20050;-73
2022/12/26 15:58:27;;;;;;;2.37;0.80;;;10.90;99.90;;;;;;4869987;29;20056;-74
2022/12/26 16:00:54;;;;;;;2.15;1.10;;;10.90;99.90;;;;;;4869795;29;20034;-73
2022/12/26 16:03:45;;;;;;;6.90;4.13;;;10.80;99.90;;;;;;4869937;29;20331;-73
2022/12/26 16:06:52;;;;;;;7.00;4.78;;;10.80;99.90;;;;;;4869991;29;20090;-73
2022/12/26 16:09:54;;;;;;;4.20;2.40;;;10.70;99.90;;;;;;4831574;29;20065;-75
2022/12/26 16:12:26;;;;;;;12.57;4.32;;;10.60;99.90;;;;;;4869908;29;20268;-74
2022/12/26 16:15:20;;;;;;;6.97;1.80;;;10.70;99.90;;;;;;4868525;29;20086;-74
2022/12/26 16:17:47;;;;;;;16.45;5.93;;;10.60;99.90;;;;;;4867680;29;20056;-74
2022/12/26 16:23:15;;;;;;;6.43;2.80;;;10.50;99.90;;;;;;4869863;29;20446;-74
2022/12/26 16:25:49;;;;;;;10.70;4.57;;;10.50;99.90;;;;;;4870346;29;20060;-75
2022/12/26 16:28:21;;;;;;;10.85;3.22;;;10.40;99.90;;;;;;4869901;29;20235;-76
2022/12/26 16:30:47;;;;;;;9.05;3.13;;;10.40;99.90;;;;;;4867725;29;20212;-75
2022/12/26 16:33:13;;;;;;;3.83;1.70;;;10.40;99.90;;;;;;4868566;29;20039;-75
2022/12/26 16:35:41;;;;;;;4.63;2.10;;;10.40;99.90;;;;;;4869772;29;20033;-75
2022/12/26 16:38:12;;;;;;;4.25;2.10;;;10.50;99.90;;;;;;4869387;29;20040;-73
2022/12/26 16:40:43;;;;;;;4.45;1.40;;;10.50;99.90;;;;;;4869965;29;20041;-74
2022/12/26 16:43:33;;;;;;;2.13;0.90;;;10.50;99.90;;;;;;4869803;29;20049;-74
2022/12/26 16:46:02;;;;;;;8.85;4.90;;;10.50;99.90;;;;;;4868837;29;20041;-74
2022/12/26 16:48:30;;;;;;;3.78;1.50;;;10.50;99.90;;;;;;4869411;29;20044;-73
2022/12/26 16:51:01;;;;;;;2.55;1.10;;;10.50;99.90;;;;;;4867842;29;20244;-76
2022/12/26 16:53:33;;;;;;;3.25;1.30;;;10.50;99.90;;;;;;4869604;29;20345;-74
2022/12/26 16:56:44;;;;;;;2.42;1.33;;;10.40;99.90;;;;;;4868999;29;20045;-74
2022/12/26 16:59:20;;;;;;;3.15;1.60;;;10.30;99.90;;;;;;4854599;29;20041;-74
2022/12/26 17:01:49;;;;;;;1.90;0.98;;;10.20;99.90;;;;;;4868520;29;20112;-76
2022/12/26 17:04:19;;;;;;;4.38;1.90;;;10.30;99.90;;;;;;4883787;29;20050;-74
2022/12/26 17:07:06;;;;;;;3.10;1.70;;;10.30;99.90;;;;;;4869391;29;20059;-74
2022/12/26 17:09:42;;;;;;;4.13;1.60;;;10.30;99.90;;;;;;4869084;29;20081;-74
2022/12/26 17:12:19;;;;;;;3.05;1.35;;;10.20;99.90;;;;;;4868774;29;20146;-74
2022/12/26 17:14:47;;;;;;;4.23;1.90;;;10.30;99.90;;;;;;4869585;29;20064;-74
2022/12/26 17:17:22;;;;;;;4.70;2.33;;;10.30;99.90;;;;;;4869374;29;20041;-75
2022/12/26 17:19:53;;;;;;;5.72;2.30;;;10.30;99.90;;;;;;4868886;29;20366;-75
2022/12/26 17:22:32;;;;;;;5.10;2.47;;;10.20;99.90;;;;;;4869238;29;20307;-74
2022/12/26 17:25:25;;;;;;;4.13;2.40;;;10.30;99.90;;;;;;4868187;29;20323;-73
2022/12/26 17:28:13;;;;;;;4.05;1.88;;;10.20;99.90;;;;;;4868450;29;20320;-74
2022/12/26 17:30:39;;;;;;;4.03;2.00;;;10.20;99.90;;;;;;4868824;29;20276;-73
2022/12/26 17:33:16;;;;;;;7.97;2.47;;;10.30;99.90;;;;;;4868392;29;20052;-75
2022/12/26 17:35:49;;;;;;;3.72;1.90;;;10.30;99.90;;;;;;4869312;29;20037;-73
2022/12/26 17:38:35;;;;;;;3.80;1.80;;;10.40;99.90;;;;;;4869179;29;20038;-74
2022/12/26 17:41:03;;;;;;;5.75;3.10;;;10.40;99.90;;;;;;4868523;29;20033;-76
2022/12/26 17:43:35;;;;;;;4.20;2.10;;;10.40;99.90;;;;;;4872441;29;20034;-73
2022/12/26 17:46:02;;;;;;;3.22;1.42;;;10.50;99.90;;;;;;4872357;29;20044;-74
2022/12/26 17:48:28;;;;;;;3.47;1.77;;;10.50;99.90;;;;;;4872655;29;20029;-73
2022/12/26 17:50:57;;;;;;;3.63;1.52;;;10.50;99.90;;;;;;4871294;29;20097;-75
2022/12/26 17:53:33;;;;;;;4.93;1.80;;;10.60;99.90;;;;;;4872835;29;20338;-74
2022/12/26 17:56:09;;;;;;;3.42;1.70;;;10.60;99.90;;;;;;4871940;29;20033;-73
2022/12/26 17:58:35;;;;;;;5.13;2.70;;;10.50;99.90;;;;;;4871567;29;20078;-74
2022/12/26 18:01:01;;;;;;;5.82;2.75;;;10.40;99.90;;;;;;4871650;29;20300;-74
2022/12/26 18:03:27;;;;;;;4.68;2.47;;;10.40;99.90;;;;;;4872579;29;20041;-74
2022/12/26 18:05:55;;;;;;;6.00;3.03;;;10.30;99.90;;;;;;4871706;29;20109;-73
2022/12/26 18:08:32;;;;;;;5.47;3.20;;;10.20;99.90;;;;;;4872157;29;20052;-73
2022/12/26 18:11:00;;;;;;;4.87;2.50;;;10.20;99.90;;;;;;4871903;29;20038;-73
2022/12/26 18:13:26;;;;;;;5.65;2.92;;;10.10;99.90;;;;;;4872437;29;20453;-73
2022/12/26 18:15:53;;;;;;;7.38;3.38;;;10.00;99.90;;;;;;4871683;29;20037;-75
2022/12/26 18:18:21;;;;;;;5.65;2.75;;;9.90;99.90;;;;;;4872160;29;20314;-75
2022/12/26 18:20:47;;;;;;;4.90;1.95;;;9.90;99.90;;;;;;4872290;29;20033;-74
2022/12/26 18:23:13;;;;;;;3.90;1.63;;;9.80;99.90;;;;;;4871367;29;20033;-74
2022/12/26 18:25:39;;;;;;;4.30;1.50;;;9.60;99.90;;;;;;4872169;29;20093;-73
2022/12/26 18:28:05;;;;;;;3.17;1.10;;;9.40;99.90;;;;;;4871229;29;20033;-75
2022/12/26 18:30:30;;;;;;;6.97;1.27;;;9.20;99.90;;;;;;4871830;29;20033;-73
2022/12/26 18:32:56;;;;;;;2.45;0.50;;;9.10;99.90;;;;;;4870358;29;20259;-75
2022/12/26 18:35:22;;;;;;;2.60;0.80;;;9.00;99.90;;;;;;4886042;29;20049;-74
2022/12/26 18:37:51;;;;;;;1.77;0.55;;;8.90;99.90;;;;;;4871970;29;20046;-74
2022/12/26 18:40:26;;;;;;;3.13;0.40;;;8.80;99.90;;;;;;4871613;29;20040;-73
2022/12/26 18:42:52;;;;;;;2.47;0.50;;;8.70;99.90;;;;;;4871216;29;20030;-73
2022/12/26 18:45:18;;;;;;;2.03;0.40;;;8.60;99.90;;;;;;4871537;29;20150;-74
2022/12/26 18:47:43;;;;;;;2.25;0.32;;;8.50;99.90;;;;;;4871840;29;20038;-74
2022/12/26 18:50:11;;;;;;;1.58;0.35;;;8.40;99.90;;;;;;4870115;29;20268;-75
2022/12/26 18:52:37;;;;;;;2.73;0.57;;;8.40;99.90;;;;;;4871693;29;20061;-73
2022/12/26 18:55:03;;;;;;;1.33;0.30;;;8.30;99.90;;;;;;4870710;29;20064;-74
2022/12/26 18:57:28;;;;;;;0.60;0.15;;;8.10;99.90;;;;;;4871375;29;20316;-73
2022/12/26 18:59:54;;;;;;;0.68;0.20;;;8.00;99.90;;;;;;4870777;29;20365;-74
2022/12/26 19:02:20;;;;;;;1.70;0.30;;;8.00;99.90;;;;;;4870910;29;20224;-73
2022/12/26 19:04:47;;;;;;;1.95;0.40;;;7.80;99.90;;;;;;4871494;29;20044;-73
2022/12/26 19:07:15;;;;;;;1.27;0.30;;;7.80;99.90;;;;;;4869791;29;20081;-73
2022/12/26 19:09:46;;;;;;;2.60;0.32;;;7.80;99.90;;;;;;4871258;29;20323;-74
2022/12/26 19:12:12;;;;;;;1.70;0.30;;;7.80;99.90;;;;;;4870890;29;20041;-74
2022/12/26 19:14:38;;;;;;;1.60;0.40;;;7.80;99.90;;;;;;4871008;29;20033;-74
2022/12/26 19:17:04;;;;;;;1.40;0.40;;;7.80;99.90;;;;;;4870665;29;20041;-74
2022/12/26 19:19:30;;;;;;;1.73;0.50;;;7.80;99.90;;;;;;4871294;29;20415;-74
2022/12/26 19:21:56;;;;;;;1.27;0.70;;;7.80;99.90;;;;;;4870558;29;20045;-74
2022/12/26 19:24:22;;;;;;;2.83;0.70;;;7.80;99.90;;;;;;4870839;29;20037;-73
2022/12/26 19:26:48;;;;;;;1.58;0.50;;;7.80;99.90;;;;;;4870797;29;20045;-74
2022/12/26 19:29:14;;;;;;;1.92;0.60;;;7.80;99.90;;;;;;4870573;29;20223;-73
2022/12/26 19:31:40;;;;;;;1.90;0.68;;;7.80;99.90;;;;;;4870729;29;20048;-73
2022/12/26 19:34:06;;;;;;;2.33;0.70;;;7.90;99.90;;;;;;4870045;29;20311;-73
2022/12/26 19:36:32;;;;;;;2.03;0.73;;;7.80;99.90;;;;;;4870446;29;20204;-74